sensor_id;sensor_type;location;lat;lon;timestamp;P1;durP1;ratioP1;P2;durP2;ratioP2
11679;SDS011;5896;42.686;23.142;2024-01-16T00:01:03;7.75;;;2.80;;
11679;SDS011;5896;42.686;23.142;2024-01-16T00:03:29;5.13;;;2.10;;
11679;SDS011;5896;42.686;23.142;2024-01-16T00:05:54;5.25;;;2.25;;
11679;SDS011;5896;42.686;23.142;2024-01-16T00:08:20;3.38;;;1.17;;
11679;SDS011;5896;42.686;23.142;2024-01-16T00:10:45;3.65;;;1.55;;
11679;SDS011;5896;42.686;23.142;2024-01-16T00:13:11;6.00;;;2.00;;
11679;SDS011;5896;42.686;23.142;2024-01-16T00:15:36;5.55;;;2.53;;
11679;SDS011;5896;42.686;23.142;2024-01-16T00:18:02;5.38;;;1.73;;
11679;SDS011;5896;42.686;23.142;2024-01-16T00:20:27;2.58;;;1.38;;
11679;SDS011;5896;42.686;23.142;2024-01-16T00:22:52;7.30;;;2.28;;
11679;SDS011;5896;42.686;23.142;2024-01-16T00:25:18;4.50;;;2.13;;
11679;SDS011;5896;42.686;23.142;2024-01-16T00:27:45;7.95;;;2.28;;
11679;SDS011;5896;42.686;23.142;2024-01-16T00:30:11;5.25;;;1.92;;
11679;SDS011;5896;42.686;23.142;2024-01-16T00:32:38;4.43;;;1.92;;
11679;SDS011;5896;42.686;23.142;2024-01-16T00:35:04;8.68;;;2.28;;
11679;SDS011;5896;42.686;23.142;2024-01-16T00:37:30;3.67;;;1.25;;
11679;SDS011;5896;42.686;23.142;2024-01-16T00:39:55;5.28;;;1.90;;
11679;SDS011;5896;42.686;23.142;2024-01-16T00:42:20;4.60;;;1.75;;
11679;SDS011;5896;42.686;23.142;2024-01-16T00:44:46;5.18;;;1.42;;
11679;SDS011;5896;42.686;23.142;2024-01-16T00:47:11;4.53;;;1.90;;
11679;SDS011;5896;42.686;23.142;2024-01-16T00:49:37;4.53;;;1.65;;
11679;SDS011;5896;42.686;23.142;2024-01-16T00:52:02;2.05;;;1.33;;
11679;SDS011;5896;42.686;23.142;2024-01-16T00:54:28;2.95;;;1.52;;
11679;SDS011;5896;42.686;23.142;2024-01-16T00:56:53;3.38;;;1.60;;
11679;SDS011;5896;42.686;23.142;2024-01-16T00:59:24;3.42;;;1.40;;
11679;SDS011;5896;42.686;23.142;2024-01-16T01:01:52;3.10;;;1.50;;
11679;SDS011;5896;42.686;23.142;2024-01-16T01:04:18;3.85;;;1.63;;
11679;SDS011;5896;42.686;23.142;2024-01-16T01:06:44;2.55;;;1.33;;
11679;SDS011;5896;42.686;23.142;2024-01-16T01:09:09;4.40;;;1.33;;
11679;SDS011;5896;42.686;23.142;2024-01-16T01:11:37;4.63;;;1.70;;
11679;SDS011;5896;42.686;23.142;2024-01-16T01:14:03;1.98;;;0.98;;
11679;SDS011;5896;42.686;23.142;2024-01-16T01:16:28;3.15;;;1.45;;
11679;SDS011;5896;42.686;23.142;2024-01-16T01:18:54;3.90;;;1.52;;
11679;SDS011;5896;42.686;23.142;2024-01-16T01:21:19;2.55;;;1.23;;
11679;SDS011;5896;42.686;23.142;2024-01-16T01:23:45;2.03;;;1.17;;
11679;SDS011;5896;42.686;23.142;2024-01-16T01:26:10;5.40;;;2.42;;
11679;SDS011;5896;42.686;23.142;2024-01-16T01:28:38;6.07;;;2.45;;
11679;SDS011;5896;42.686;23.142;2024-01-16T01:31:05;2.92;;;1.05;;
11679;SDS011;5896;42.686;23.142;2024-01-16T01:33:30;2.55;;;1.15;;
11679;SDS011;5896;42.686;23.142;2024-01-16T01:35:56;4.90;;;1.60;;
11679;SDS011;5896;42.686;23.142;2024-01-16T01:38:21;2.55;;;1.45;;
11679;SDS011;5896;42.686;23.142;2024-01-16T01:40:46;3.85;;;1.25;;
11679;SDS011;5896;42.686;23.142;2024-01-16T01:43:19;2.85;;;1.73;;
11679;SDS011;5896;42.686;23.142;2024-01-16T01:45:47;6.68;;;3.03;;
11679;SDS011;5896;42.686;23.142;2024-01-16T01:48:28;5.57;;;2.05;;
11679;SDS011;5896;42.686;23.142;2024-01-16T01:50:56;2.70;;;1.40;;
11679;SDS011;5896;42.686;23.142;2024-01-16T01:53:22;1.95;;;1.17;;
11679;SDS011;5896;42.686;23.142;2024-01-16T01:55:47;7.82;;;3.70;;
11679;SDS011;5896;42.686;23.142;2024-01-16T01:58:13;3.30;;;1.60;;
11679;SDS011;5896;42.686;23.142;2024-01-16T02:00:38;1.25;;;0.68;;
11679;SDS011;5896;42.686;23.142;2024-01-16T02:03:04;2.65;;;1.05;;
11679;SDS011;5896;42.686;23.142;2024-01-16T02:05:30;9.75;;;4.20;;
11679;SDS011;5896;42.686;23.142;2024-01-16T02:07:56;4.25;;;1.67;;
11679;SDS011;5896;42.686;23.142;2024-01-16T02:10:23;3.33;;;1.50;;
11679;SDS011;5896;42.686;23.142;2024-01-16T02:12:49;2.38;;;1.73;;
11679;SDS011;5896;42.686;23.142;2024-01-16T02:15:15;2.67;;;0.70;;
11679;SDS011;5896;42.686;23.142;2024-01-16T02:17:40;1.95;;;1.42;;
11679;SDS011;5896;42.686;23.142;2024-01-16T02:20:06;1.75;;;0.77;;
11679;SDS011;5896;42.686;23.142;2024-01-16T02:22:32;2.10;;;1.10;;
11679;SDS011;5896;42.686;23.142;2024-01-16T02:24:58;2.30;;;1.15;;
11679;SDS011;5896;42.686;23.142;2024-01-16T02:27:24;3.40;;;0.93;;
11679;SDS011;5896;42.686;23.142;2024-01-16T02:29:49;2.25;;;1.17;;
11679;SDS011;5896;42.686;23.142;2024-01-16T02:32:15;2.42;;;0.90;;
11679;SDS011;5896;42.686;23.142;2024-01-16T02:34:41;1.67;;;0.82;;
11679;SDS011;5896;42.686;23.142;2024-01-16T02:37:07;2.38;;;0.75;;
11679;SDS011;5896;42.686;23.142;2024-01-16T02:39:32;2.15;;;1.10;;
11679;SDS011;5896;42.686;23.142;2024-01-16T02:41:58;1.00;;;0.80;;
11679;SDS011;5896;42.686;23.142;2024-01-16T02:44:23;0.70;;;0.40;;
11679;SDS011;5896;42.686;23.142;2024-01-16T02:46:48;0.22;;;0.22;;
11679;SDS011;5896;42.686;23.142;2024-01-16T02:49:14;2.13;;;1.10;;
11679;SDS011;5896;42.686;23.142;2024-01-16T02:51:40;1.98;;;0.77;;
11679;SDS011;5896;42.686;23.142;2024-01-16T02:54:06;1.20;;;0.60;;
11679;SDS011;5896;42.686;23.142;2024-01-16T02:56:33;1.02;;;0.60;;
11679;SDS011;5896;42.686;23.142;2024-01-16T02:58:58;1.20;;;0.98;;
11679;SDS011;5896;42.686;23.142;2024-01-16T03:01:23;0.50;;;0.13;;
11679;SDS011;5896;42.686;23.142;2024-01-16T03:03:49;1.50;;;0.68;;
11679;SDS011;5896;42.686;23.142;2024-01-16T03:06:21;2.15;;;1.20;;
11679;SDS011;5896;42.686;23.142;2024-01-16T03:08:49;2.22;;;0.77;;
11679;SDS011;5896;42.686;23.142;2024-01-16T03:11:16;0.82;;;0.40;;
11679;SDS011;5896;42.686;23.142;2024-01-16T03:13:42;1.10;;;0.65;;
11679;SDS011;5896;42.686;23.142;2024-01-16T03:16:08;2.65;;;1.13;;
11679;SDS011;5896;42.686;23.142;2024-01-16T03:18:35;2.05;;;1.15;;
11679;SDS011;5896;42.686;23.142;2024-01-16T03:21:01;2.10;;;0.75;;
11679;SDS011;5896;42.686;23.142;2024-01-16T03:23:26;1.60;;;0.95;;
11679;SDS011;5896;42.686;23.142;2024-01-16T03:25:51;2.67;;;1.48;;
11679;SDS011;5896;42.686;23.142;2024-01-16T03:28:17;1.90;;;1.13;;
11679;SDS011;5896;42.686;23.142;2024-01-16T03:30:42;5.22;;;2.83;;
11679;SDS011;5896;42.686;23.142;2024-01-16T03:33:08;2.40;;;1.58;;
11679;SDS011;5896;42.686;23.142;2024-01-16T03:35:34;4.25;;;2.22;;
11679;SDS011;5896;42.686;23.142;2024-01-16T03:37:59;2.92;;;1.45;;
11679;SDS011;5896;42.686;23.142;2024-01-16T03:40:24;2.58;;;2.00;;
11679;SDS011;5896;42.686;23.142;2024-01-16T03:42:50;2.65;;;1.88;;
11679;SDS011;5896;42.686;23.142;2024-01-16T03:45:15;2.55;;;1.45;;
11679;SDS011;5896;42.686;23.142;2024-01-16T03:47:41;1.58;;;0.90;;
11679;SDS011;5896;42.686;23.142;2024-01-16T03:50:06;0.75;;;0.52;;
11679;SDS011;5896;42.686;23.142;2024-01-16T03:52:32;3.08;;;1.73;;
11679;SDS011;5896;42.686;23.142;2024-01-16T03:54:57;1.67;;;1.33;;
11679;SDS011;5896;42.686;23.142;2024-01-16T03:57:23;0.60;;;0.45;;
11679;SDS011;5896;42.686;23.142;2024-01-16T03:59:49;1.55;;;0.77;;
11679;SDS011;5896;42.686;23.142;2024-01-16T04:02:15;1.83;;;0.88;;
11679;SDS011;5896;42.686;23.142;2024-01-16T04:04:40;2.30;;;1.17;;
11679;SDS011;5896;42.686;23.142;2024-01-16T04:07:06;2.15;;;0.98;;
11679;SDS011;5896;42.686;23.142;2024-01-16T04:09:31;2.45;;;1.27;;
11679;SDS011;5896;42.686;23.142;2024-01-16T04:11:57;1.73;;;1.23;;
11679;SDS011;5896;42.686;23.142;2024-01-16T04:14:22;1.42;;;0.82;;
11679;SDS011;5896;42.686;23.142;2024-01-16T04:16:47;2.38;;;1.40;;
11679;SDS011;5896;42.686;23.142;2024-01-16T04:19:13;1.60;;;1.10;;
11679;SDS011;5896;42.686;23.142;2024-01-16T04:21:38;2.00;;;1.00;;
11679;SDS011;5896;42.686;23.142;2024-01-16T04:24:04;0.35;;;0.20;;
11679;SDS011;5896;42.686;23.142;2024-01-16T04:26:30;0.95;;;0.50;;
11679;SDS011;5896;42.686;23.142;2024-01-16T04:28:55;2.10;;;0.40;;
11679;SDS011;5896;42.686;23.142;2024-01-16T04:31:21;1.27;;;0.55;;
11679;SDS011;5896;42.686;23.142;2024-01-16T04:33:47;0.90;;;0.60;;
11679;SDS011;5896;42.686;23.142;2024-01-16T04:36:13;1.98;;;0.80;;
11679;SDS011;5896;42.686;23.142;2024-01-16T04:38:38;1.33;;;0.45;;
11679;SDS011;5896;42.686;23.142;2024-01-16T04:41:03;1.63;;;0.68;;
11679;SDS011;5896;42.686;23.142;2024-01-16T04:43:29;1.20;;;0.55;;
11679;SDS011;5896;42.686;23.142;2024-01-16T04:45:55;2.42;;;0.95;;
11679;SDS011;5896;42.686;23.142;2024-01-16T04:48:20;0.77;;;0.40;;
11679;SDS011;5896;42.686;23.142;2024-01-16T04:50:45;0.70;;;0.40;;
11679;SDS011;5896;42.686;23.142;2024-01-16T04:53:11;0.57;;;0.30;;
11679;SDS011;5896;42.686;23.142;2024-01-16T04:55:36;1.05;;;0.63;;
11679;SDS011;5896;42.686;23.142;2024-01-16T04:58:02;0.70;;;0.20;;
11679;SDS011;5896;42.686;23.142;2024-01-16T05:00:27;0.43;;;0.22;;
11679;SDS011;5896;42.686;23.142;2024-01-16T05:02:53;0.85;;;0.40;;
11679;SDS011;5896;42.686;23.142;2024-01-16T05:05:18;0.20;;;0.05;;
11679;SDS011;5896;42.686;23.142;2024-01-16T05:07:44;1.85;;;0.40;;
11679;SDS011;5896;42.686;23.142;2024-01-16T05:10:10;0.73;;;0.60;;
11679;SDS011;5896;42.686;23.142;2024-01-16T05:12:38;0.70;;;0.40;;
11679;SDS011;5896;42.686;23.142;2024-01-16T05:15:04;0.70;;;0.40;;
11679;SDS011;5896;42.686;23.142;2024-01-16T05:17:30;0.50;;;0.40;;
11679;SDS011;5896;42.686;23.142;2024-01-16T05:19:55;0.93;;;0.55;;
11679;SDS011;5896;42.686;23.142;2024-01-16T05:22:21;1.10;;;0.50;;
11679;SDS011;5896;42.686;23.142;2024-01-16T05:24:47;2.35;;;0.70;;
11679;SDS011;5896;42.686;23.142;2024-01-16T05:27:12;1.08;;;0.52;;
11679;SDS011;5896;42.686;23.142;2024-01-16T05:29:40;0.22;;;0.10;;
11679;SDS011;5896;42.686;23.142;2024-01-16T05:32:05;1.13;;;0.50;;
11679;SDS011;5896;42.686;23.142;2024-01-16T05:34:31;0.30;;;0.20;;
11679;SDS011;5896;42.686;23.142;2024-01-16T05:36:56;0.63;;;0.35;;
11679;SDS011;5896;42.686;23.142;2024-01-16T05:39:22;0.63;;;0.38;;
11679;SDS011;5896;42.686;23.142;2024-01-16T05:41:47;1.30;;;0.57;;
11679;SDS011;5896;42.686;23.142;2024-01-16T05:44:13;1.38;;;0.43;;
11679;SDS011;5896;42.686;23.142;2024-01-16T05:46:38;0.73;;;0.30;;
11679;SDS011;5896;42.686;23.142;2024-01-16T05:49:03;1.25;;;0.45;;
11679;SDS011;5896;42.686;23.142;2024-01-16T05:51:29;1.08;;;0.40;;
11679;SDS011;5896;42.686;23.142;2024-01-16T05:53:54;0.90;;;0.45;;
11679;SDS011;5896;42.686;23.142;2024-01-16T05:56:20;0.68;;;0.60;;
11679;SDS011;5896;42.686;23.142;2024-01-16T05:58:46;1.25;;;0.63;;
11679;SDS011;5896;42.686;23.142;2024-01-16T06:01:11;0.77;;;0.40;;
11679;SDS011;5896;42.686;23.142;2024-01-16T06:03:40;0.57;;;0.20;;
11679;SDS011;5896;42.686;23.142;2024-01-16T06:06:06;0.88;;;0.57;;
11679;SDS011;5896;42.686;23.142;2024-01-16T06:08:32;0.70;;;0.38;;
11679;SDS011;5896;42.686;23.142;2024-01-16T06:10:58;1.60;;;0.32;;
11679;SDS011;5896;42.686;23.142;2024-01-16T06:13:23;0.75;;;0.30;;
11679;SDS011;5896;42.686;23.142;2024-01-16T06:15:48;1.58;;;0.80;;
11679;SDS011;5896;42.686;23.142;2024-01-16T06:18:14;0.15;;;0.05;;
11679;SDS011;5896;42.686;23.142;2024-01-16T06:20:39;0.43;;;0.20;;
11679;SDS011;5896;42.686;23.142;2024-01-16T06:23:05;0.50;;;0.20;;
11679;SDS011;5896;42.686;23.142;2024-01-16T06:25:30;0.93;;;0.60;;
11679;SDS011;5896;42.686;23.142;2024-01-16T06:27:55;0.70;;;0.55;;
11679;SDS011;5896;42.686;23.142;2024-01-16T06:30:24;1.40;;;0.77;;
11679;SDS011;5896;42.686;23.142;2024-01-16T06:32:49;0.28;;;0.10;;
11679;SDS011;5896;42.686;23.142;2024-01-16T06:35:18;0.05;;;0.00;;
11679;SDS011;5896;42.686;23.142;2024-01-16T06:37:43;0.75;;;0.22;;
11679;SDS011;5896;42.686;23.142;2024-01-16T06:40:09;0.25;;;0.10;;
11679;SDS011;5896;42.686;23.142;2024-01-16T06:42:34;0.75;;;0.30;;
11679;SDS011;5896;42.686;23.142;2024-01-16T06:45:01;0.40;;;0.22;;
11679;SDS011;5896;42.686;23.142;2024-01-16T06:47:27;0.20;;;0.10;;
11679;SDS011;5896;42.686;23.142;2024-01-16T06:49:53;0.50;;;0.30;;
11679;SDS011;5896;42.686;23.142;2024-01-16T06:52:18;0.65;;;0.20;;
11679;SDS011;5896;42.686;23.142;2024-01-16T06:54:44;0.15;;;0.15;;
11679;SDS011;5896;42.686;23.142;2024-01-16T06:57:10;0.38;;;0.20;;
11679;SDS011;5896;42.686;23.142;2024-01-16T06:59:36;0.55;;;0.35;;
11679;SDS011;5896;42.686;23.142;2024-01-16T07:02:01;0.22;;;0.13;;
11679;SDS011;5896;42.686;23.142;2024-01-16T07:04:27;1.52;;;0.47;;
11679;SDS011;5896;42.686;23.142;2024-01-16T07:06:52;0.10;;;0.00;;
11679;SDS011;5896;42.686;23.142;2024-01-16T07:09:18;0.05;;;0.00;;
11679;SDS011;5896;42.686;23.142;2024-01-16T07:11:45;0.20;;;0.15;;
11679;SDS011;5896;42.686;23.142;2024-01-16T07:14:11;0.25;;;0.10;;
11679;SDS011;5896;42.686;23.142;2024-01-16T07:16:37;0.20;;;0.03;;
11679;SDS011;5896;42.686;23.142;2024-01-16T07:19:03;0.00;;;0.00;;
11679;SDS011;5896;42.686;23.142;2024-01-16T07:21:28;0.13;;;0.10;;
11679;SDS011;5896;42.686;23.142;2024-01-16T07:23:54;0.57;;;0.20;;
11679;SDS011;5896;42.686;23.142;2024-01-16T07:26:19;0.63;;;0.30;;
11679;SDS011;5896;42.686;23.142;2024-01-16T07:28:45;0.50;;;0.13;;
11679;SDS011;5896;42.686;23.142;2024-01-16T07:31:12;0.45;;;0.10;;
11679;SDS011;5896;42.686;23.142;2024-01-16T07:33:38;0.03;;;0.03;;
11679;SDS011;5896;42.686;23.142;2024-01-16T07:36:03;0.60;;;0.20;;
11679;SDS011;5896;42.686;23.142;2024-01-16T07:38:29;0.30;;;0.10;;
11679;SDS011;5896;42.686;23.142;2024-01-16T07:40:54;0.47;;;0.28;;
11679;SDS011;5896;42.686;23.142;2024-01-16T07:43:21;0.60;;;0.20;;
11679;SDS011;5896;42.686;23.142;2024-01-16T07:45:46;0.40;;;0.10;;
11679;SDS011;5896;42.686;23.142;2024-01-16T07:48:13;0.80;;;0.38;;
11679;SDS011;5896;42.686;23.142;2024-01-16T07:50:38;0.10;;;0.10;;
11679;SDS011;5896;42.686;23.142;2024-01-16T07:53:03;0.52;;;0.20;;
11679;SDS011;5896;42.686;23.142;2024-01-16T07:55:29;0.05;;;0.00;;
11679;SDS011;5896;42.686;23.142;2024-01-16T07:57:54;0.05;;;0.00;;
11679;SDS011;5896;42.686;23.142;2024-01-16T08:00:20;0.10;;;0.10;;
11679;SDS011;5896;42.686;23.142;2024-01-16T08:02:47;0.00;;;0.00;;
11679;SDS011;5896;42.686;23.142;2024-01-16T08:05:12;0.10;;;0.08;;
11679;SDS011;5896;42.686;23.142;2024-01-16T08:07:38;0.20;;;0.00;;
11679;SDS011;5896;42.686;23.142;2024-01-16T08:10:03;0.68;;;0.10;;
11679;SDS011;5896;42.686;23.142;2024-01-16T08:12:29;0.20;;;0.10;;
11679;SDS011;5896;42.686;23.142;2024-01-16T08:14:55;0.43;;;0.20;;
11679;SDS011;5896;42.686;23.142;2024-01-16T08:17:20;0.65;;;0.25;;
11679;SDS011;5896;42.686;23.142;2024-01-16T08:19:45;0.95;;;0.20;;
11679;SDS011;5896;42.686;23.142;2024-01-16T08:22:11;1.00;;;0.30;;
11679;SDS011;5896;42.686;23.142;2024-01-16T08:24:36;1.92;;;0.95;;
11679;SDS011;5896;42.686;23.142;2024-01-16T08:27:02;0.60;;;0.20;;
11679;SDS011;5896;42.686;23.142;2024-01-16T08:29:28;0.00;;;0.00;;
11679;SDS011;5896;42.686;23.142;2024-01-16T08:31:53;0.30;;;0.17;;
11679;SDS011;5896;42.686;23.142;2024-01-16T08:34:19;2.78;;;0.30;;
11679;SDS011;5896;42.686;23.142;2024-01-16T08:36:44;0.20;;;0.17;;
11679;SDS011;5896;42.686;23.142;2024-01-16T08:39:10;0.00;;;0.00;;
11679;SDS011;5896;42.686;23.142;2024-01-16T08:41:35;0.50;;;0.20;;
11679;SDS011;5896;42.686;23.142;2024-01-16T08:44:01;0.00;;;0.00;;
11679;SDS011;5896;42.686;23.142;2024-01-16T08:46:27;0.52;;;0.13;;
11679;SDS011;5896;42.686;23.142;2024-01-16T08:48:52;1.48;;;0.22;;
11679;SDS011;5896;42.686;23.142;2024-01-16T08:51:17;0.52;;;0.10;;
11679;SDS011;5896;42.686;23.142;2024-01-16T08:53:43;0.10;;;0.00;;
11679;SDS011;5896;42.686;23.142;2024-01-16T08:56:08;0.50;;;0.17;;
11679;SDS011;5896;42.686;23.142;2024-01-16T08:58:34;0.63;;;0.20;;
11679;SDS011;5896;42.686;23.142;2024-01-16T09:01:02;0.25;;;0.10;;
11679;SDS011;5896;42.686;23.142;2024-01-16T09:03:30;0.15;;;0.13;;
11679;SDS011;5896;42.686;23.142;2024-01-16T09:05:55;0.05;;;0.05;;
11679;SDS011;5896;42.686;23.142;2024-01-16T09:08:21;0.05;;;0.00;;
11679;SDS011;5896;42.686;23.142;2024-01-16T09:10:46;0.28;;;0.10;;
11679;SDS011;5896;42.686;23.142;2024-01-16T09:13:11;1.95;;;0.30;;
11679;SDS011;5896;42.686;23.142;2024-01-16T09:15:37;0.20;;;0.10;;
11679;SDS011;5896;42.686;23.142;2024-01-16T09:18:03;0.03;;;0.00;;
11679;SDS011;5896;42.686;23.142;2024-01-16T09:20:28;0.30;;;0.00;;
11679;SDS011;5896;42.686;23.142;2024-01-16T09:22:54;0.35;;;0.20;;
11679;SDS011;5896;42.686;23.142;2024-01-16T09:25:19;0.35;;;0.22;;
11679;SDS011;5896;42.686;23.142;2024-01-16T09:27:46;0.60;;;0.20;;
11679;SDS011;5896;42.686;23.142;2024-01-16T09:30:11;0.30;;;0.10;;
11679;SDS011;5896;42.686;23.142;2024-01-16T09:32:37;0.28;;;0.10;;
11679;SDS011;5896;42.686;23.142;2024-01-16T09:35:03;0.30;;;0.20;;
11679;SDS011;5896;42.686;23.142;2024-01-16T09:37:31;0.20;;;0.00;;
11679;SDS011;5896;42.686;23.142;2024-01-16T09:39:56;0.45;;;0.13;;
11679;SDS011;5896;42.686;23.142;2024-01-16T09:42:22;0.10;;;0.00;;
11679;SDS011;5896;42.686;23.142;2024-01-16T09:44:48;0.47;;;0.20;;
11679;SDS011;5896;42.686;23.142;2024-01-16T09:47:15;0.77;;;0.10;;
11679;SDS011;5896;42.686;23.142;2024-01-16T09:49:41;0.43;;;0.13;;
11679;SDS011;5896;42.686;23.142;2024-01-16T09:52:08;0.50;;;0.10;;
11679;SDS011;5896;42.686;23.142;2024-01-16T09:54:34;0.43;;;0.08;;
11679;SDS011;5896;42.686;23.142;2024-01-16T09:56:59;0.40;;;0.10;;
11679;SDS011;5896;42.686;23.142;2024-01-16T09:59:28;0.75;;;0.10;;
11679;SDS011;5896;42.686;23.142;2024-01-16T10:01:56;0.32;;;0.20;;
11679;SDS011;5896;42.686;23.142;2024-01-16T10:04:23;0.40;;;0.20;;
11679;SDS011;5896;42.686;23.142;2024-01-16T10:06:49;0.38;;;0.15;;
11679;SDS011;5896;42.686;23.142;2024-01-16T10:09:16;1.23;;;0.30;;
11679;SDS011;5896;42.686;23.142;2024-01-16T10:11:41;0.65;;;0.20;;
11679;SDS011;5896;42.686;23.142;2024-01-16T10:14:08;0.10;;;0.10;;
11679;SDS011;5896;42.686;23.142;2024-01-16T10:19:24;1.20;;;0.10;;
11679;SDS011;5896;42.686;23.142;2024-01-16T10:21:52;0.08;;;0.00;;
11679;SDS011;5896;42.686;23.142;2024-01-16T10:24:17;0.30;;;0.20;;
11679;SDS011;5896;42.686;23.142;2024-01-16T10:26:43;0.40;;;0.10;;
11679;SDS011;5896;42.686;23.142;2024-01-16T10:29:08;1.20;;;0.20;;
11679;SDS011;5896;42.686;23.142;2024-01-16T10:31:34;0.30;;;0.03;;
11679;SDS011;5896;42.686;23.142;2024-01-16T10:34:00;1.25;;;0.20;;
11679;SDS011;5896;42.686;23.142;2024-01-16T10:36:25;0.75;;;0.22;;
11679;SDS011;5896;42.686;23.142;2024-01-16T10:38:51;0.35;;;0.05;;
11679;SDS011;5896;42.686;23.142;2024-01-16T10:41:23;0.43;;;0.20;;
11679;SDS011;5896;42.686;23.142;2024-01-16T10:44:03;0.20;;;0.00;;
11679;SDS011;5896;42.686;23.142;2024-01-16T10:46:32;0.43;;;0.22;;
11679;SDS011;5896;42.686;23.142;2024-01-16T10:48:58;0.20;;;0.05;;
11679;SDS011;5896;42.686;23.142;2024-01-16T10:51:28;0.25;;;0.25;;
11679;SDS011;5896;42.686;23.142;2024-01-16T10:53:57;0.15;;;0.10;;
11679;SDS011;5896;42.686;23.142;2024-01-16T10:56:26;1.17;;;0.10;;
11679;SDS011;5896;42.686;23.142;2024-01-16T10:58:57;0.20;;;0.00;;
11679;SDS011;5896;42.686;23.142;2024-01-16T11:01:31;0.20;;;0.13;;
11679;SDS011;5896;42.686;23.142;2024-01-16T11:03:57;0.30;;;0.10;;
11679;SDS011;5896;42.686;23.142;2024-01-16T11:06:25;0.52;;;0.10;;
11679;SDS011;5896;42.686;23.142;2024-01-16T11:08:52;0.40;;;0.20;;
11679;SDS011;5896;42.686;23.142;2024-01-16T11:11:18;0.30;;;0.10;;
11679;SDS011;5896;42.686;23.142;2024-01-16T11:13:45;0.40;;;0.10;;
11679;SDS011;5896;42.686;23.142;2024-01-16T11:16:11;1.10;;;0.88;;
11679;SDS011;5896;42.686;23.142;2024-01-16T11:18:37;0.57;;;0.13;;
11679;SDS011;5896;42.686;23.142;2024-01-16T11:21:03;0.40;;;0.10;;
11679;SDS011;5896;42.686;23.142;2024-01-16T11:23:32;0.10;;;0.03;;
11679;SDS011;5896;42.686;23.142;2024-01-16T11:25:59;0.47;;;0.20;;
11679;SDS011;5896;42.686;23.142;2024-01-16T11:28:28;0.05;;;0.00;;
11679;SDS011;5896;42.686;23.142;2024-01-16T11:30:56;0.52;;;0.10;;
11679;SDS011;5896;42.686;23.142;2024-01-16T11:35:56;0.40;;;0.30;;
11679;SDS011;5896;42.686;23.142;2024-01-16T11:38:22;1.98;;;0.80;;
11679;SDS011;5896;42.686;23.142;2024-01-16T11:40:49;1.30;;;0.50;;
11679;SDS011;5896;42.686;23.142;2024-01-16T11:46:04;1.27;;;0.50;;
11679;SDS011;5896;42.686;23.142;2024-01-16T11:48:31;1.67;;;0.35;;
11679;SDS011;5896;42.686;23.142;2024-01-16T11:50:56;2.15;;;0.20;;
11679;SDS011;5896;42.686;23.142;2024-01-16T11:53:34;0.93;;;0.50;;
11679;SDS011;5896;42.686;23.142;2024-01-16T11:56:09;1.98;;;0.40;;
11679;SDS011;5896;42.686;23.142;2024-01-16T12:04:05;0.75;;;0.17;;
11679;SDS011;5896;42.686;23.142;2024-01-16T12:06:31;0.82;;;0.40;;
11679;SDS011;5896;42.686;23.142;2024-01-16T12:09:14;1.23;;;0.47;;
11679;SDS011;5896;42.686;23.142;2024-01-16T12:11:41;1.05;;;0.50;;
11679;SDS011;5896;42.686;23.142;2024-01-16T12:14:13;0.98;;;0.60;;
11679;SDS011;5896;42.686;23.142;2024-01-16T12:16:38;1.73;;;0.40;;
11679;SDS011;5896;42.686;23.142;2024-01-16T12:19:04;0.85;;;0.40;;
11679;SDS011;5896;42.686;23.142;2024-01-16T12:21:40;2.40;;;0.60;;
11679;SDS011;5896;42.686;23.142;2024-01-16T12:24:07;1.27;;;0.68;;
11679;SDS011;5896;42.686;23.142;2024-01-16T12:26:32;0.75;;;0.30;;
11679;SDS011;5896;42.686;23.142;2024-01-16T12:28:58;0.85;;;0.40;;
11679;SDS011;5896;42.686;23.142;2024-01-16T12:31:24;0.70;;;0.40;;
11679;SDS011;5896;42.686;23.142;2024-01-16T12:33:54;1.17;;;0.40;;
11679;SDS011;5896;42.686;23.142;2024-01-16T12:36:29;2.70;;;0.45;;
11679;SDS011;5896;42.686;23.142;2024-01-16T12:38:54;2.25;;;0.45;;
11679;SDS011;5896;42.686;23.142;2024-01-16T12:41:21;1.52;;;0.17;;
11679;SDS011;5896;42.686;23.142;2024-01-16T12:43:51;3.08;;;0.52;;
11679;SDS011;5896;42.686;23.142;2024-01-16T12:46:16;1.20;;;0.60;;
11679;SDS011;5896;42.686;23.142;2024-01-16T12:48:44;0.45;;;0.22;;
11679;SDS011;5896;42.686;23.142;2024-01-16T12:51:09;1.52;;;0.65;;
11679;SDS011;5896;42.686;23.142;2024-01-16T12:53:37;0.55;;;0.40;;
11679;SDS011;5896;42.686;23.142;2024-01-16T12:56:04;1.42;;;0.55;;
11679;SDS011;5896;42.686;23.142;2024-01-16T12:58:33;0.85;;;0.40;;
11679;SDS011;5896;42.686;23.142;2024-01-16T13:03:49;2.47;;;0.80;;
11679;SDS011;5896;42.686;23.142;2024-01-16T13:06:19;1.55;;;0.70;;
11679;SDS011;5896;42.686;23.142;2024-01-16T13:11:51;2.63;;;0.60;;
11679;SDS011;5896;42.686;23.142;2024-01-16T13:14:23;1.67;;;0.60;;
11679;SDS011;5896;42.686;23.142;2024-01-16T13:16:49;1.17;;;0.52;;
11679;SDS011;5896;42.686;23.142;2024-01-16T13:19:19;0.57;;;0.43;;
11679;SDS011;5896;42.686;23.142;2024-01-16T13:21:45;1.83;;;0.68;;
11679;SDS011;5896;42.686;23.142;2024-01-16T13:24:11;2.25;;;0.70;;
11679;SDS011;5896;42.686;23.142;2024-01-16T13:26:38;1.77;;;0.70;;
11679;SDS011;5896;42.686;23.142;2024-01-16T13:29:04;2.25;;;1.10;;
11679;SDS011;5896;42.686;23.142;2024-01-16T13:31:31;1.73;;;0.70;;
11679;SDS011;5896;42.686;23.142;2024-01-16T13:33:57;1.52;;;0.45;;
11679;SDS011;5896;42.686;23.142;2024-01-16T13:36:22;3.08;;;1.02;;
11679;SDS011;5896;42.686;23.142;2024-01-16T13:38:48;1.92;;;0.73;;
11679;SDS011;5896;42.686;23.142;2024-01-16T13:41:14;0.88;;;0.30;;
11679;SDS011;5896;42.686;23.142;2024-01-16T13:43:40;1.98;;;1.02;;
11679;SDS011;5896;42.686;23.142;2024-01-16T13:46:05;4.00;;;1.38;;
11679;SDS011;5896;42.686;23.142;2024-01-16T13:48:33;2.88;;;1.33;;
11679;SDS011;5896;42.686;23.142;2024-01-16T13:50:58;2.42;;;0.88;;
11679;SDS011;5896;42.686;23.142;2024-01-16T13:53:24;2.95;;;1.10;;
11679;SDS011;5896;42.686;23.142;2024-01-16T13:55:49;1.30;;;0.63;;
11679;SDS011;5896;42.686;23.142;2024-01-16T13:58:15;1.30;;;0.75;;
11679;SDS011;5896;42.686;23.142;2024-01-16T14:00:40;1.05;;;0.55;;
11679;SDS011;5896;42.686;23.142;2024-01-16T14:03:05;2.03;;;0.50;;
11679;SDS011;5896;42.686;23.142;2024-01-16T14:05:31;1.02;;;0.38;;
11679;SDS011;5896;42.686;23.142;2024-01-16T14:07:56;1.92;;;0.50;;
11679;SDS011;5896;42.686;23.142;2024-01-16T14:10:22;0.88;;;0.55;;
11679;SDS011;5896;42.686;23.142;2024-01-16T14:12:50;1.40;;;0.57;;
11679;SDS011;5896;42.686;23.142;2024-01-16T14:15:16;1.60;;;0.80;;
11679;SDS011;5896;42.686;23.142;2024-01-16T14:17:46;1.73;;;0.73;;
11679;SDS011;5896;42.686;23.142;2024-01-16T14:20:12;1.63;;;0.57;;
11679;SDS011;5896;42.686;23.142;2024-01-16T14:22:39;2.42;;;1.15;;
11679;SDS011;5896;42.686;23.142;2024-01-16T14:25:06;1.10;;;0.52;;
11679;SDS011;5896;42.686;23.142;2024-01-16T14:30:11;2.05;;;1.17;;
11679;SDS011;5896;42.686;23.142;2024-01-16T14:32:39;2.78;;;1.15;;
11679;SDS011;5896;42.686;23.142;2024-01-16T14:35:05;3.80;;;1.38;;
11679;SDS011;5896;42.686;23.142;2024-01-16T14:37:32;0.88;;;0.50;;
11679;SDS011;5896;42.686;23.142;2024-01-16T14:39:59;1.10;;;0.77;;
11679;SDS011;5896;42.686;23.142;2024-01-16T14:42:54;3.13;;;1.00;;
11679;SDS011;5896;42.686;23.142;2024-01-16T14:45:22;2.05;;;1.17;;
11679;SDS011;5896;42.686;23.142;2024-01-16T14:47:48;1.65;;;0.95;;
11679;SDS011;5896;42.686;23.142;2024-01-16T14:50:15;1.42;;;0.47;;
11679;SDS011;5896;42.686;23.142;2024-01-16T14:52:45;1.45;;;0.85;;
11679;SDS011;5896;42.686;23.142;2024-01-16T14:55:11;2.63;;;0.52;;
11679;SDS011;5896;42.686;23.142;2024-01-16T14:57:39;1.85;;;0.57;;
11679;SDS011;5896;42.686;23.142;2024-01-16T15:00:09;2.85;;;0.95;;
11679;SDS011;5896;42.686;23.142;2024-01-16T15:02:54;3.17;;;1.08;;
11679;SDS011;5896;42.686;23.142;2024-01-16T15:05:21;3.30;;;1.15;;